sensor_id;sensor_type;location;lat;lon;timestamp;pressure;altitude;pressure_sealevel;temperature
64600;BMP280;6553;48.412;9.514;2023-10-19T00:00:05;71541.94;;;18.69
64600;BMP280;6553;48.412;9.514;2023-10-19T00:02:49;71542.38;;;18.73
64600;BMP280;6553;48.412;9.514;2023-10-19T00:05:18;71545.13;;;18.73
64600;BMP280;6553;48.412;9.514;2023-10-19T00:07:45;71541.72;;;18.75
64600;BMP280;6553;48.412;9.514;2023-10-19T00:10:12;71543.53;;;18.71
64600;BMP280;6553;48.412;9.514;2023-10-19T00:12:42;71542.47;;;18.70
64600;BMP280;6553;48.412;9.514;2023-10-19T00:15:10;71548.31;;;18.76
64600;BMP280;6553;48.412;9.514;2023-10-19T00:17:37;71540.69;;;18.74
64600;BMP280;6553;48.412;9.514;2023-10-19T00:20:06;71546.19;;;18.74
64600;BMP280;6553;48.412;9.514;2023-10-19T00:22:52;71551.72;;;18.74
64600;BMP280;6553;48.412;9.514;2023-10-19T00:25:19;71545.66;;;18.73
64600;BMP280;6553;48.412;9.514;2023-10-19T00:27:48;71538.66;;;18.69
64600;BMP280;6553;48.412;9.514;2023-10-19T00:30:14;71543.00;;;18.70
64600;BMP280;6553;48.412;9.514;2023-10-19T00:32:44;71541.31;;;18.72
64600;BMP280;6553;48.412;9.514;2023-10-19T00:35:11;71547.78;;;18.75
64600;BMP280;6553;48.412;9.514;2023-10-19T00:37:55;71533.78;;;18.67
64600;BMP280;6553;48.412;9.514;2023-10-19T00:40:24;71541.31;;;18.72
64600;BMP280;6553;48.412;9.514;2023-10-19T00:43:04;71541.84;;;18.72
64600;BMP280;6553;48.412;9.514;2023-10-19T00:45:35;71537.47;;;18.70
64600;BMP280;6553;48.412;9.514;2023-10-19T00:48:09;71537.47;;;18.70
64600;BMP280;6553;48.412;9.514;2023-10-19T00:50:37;71550.66;;;18.73
64600;BMP280;6553;48.412;9.514;2023-10-19T00:53:04;71541.94;;;18.69
64600;BMP280;6553;48.412;9.514;2023-10-19T00:55:35;71539.16;;;18.69
64600;BMP280;6553;48.412;9.514;2023-10-19T00:58:02;71536.41;;;18.69
64600;BMP280;6553;48.412;9.514;2023-10-19T01:00:36;71542.47;;;18.70
64600;BMP280;6553;48.412;9.514;2023-10-19T01:03:11;71544.50;;;18.75
64600;BMP280;6553;48.412;9.514;2023-10-19T01:05:43;71545.03;;;18.75
64600;BMP280;6553;48.412;9.514;2023-10-19T01:08:14;71539.59;;;18.73
64600;BMP280;6553;48.412;9.514;2023-10-19T01:10:58;71546.19;;;18.74
64600;BMP280;6553;48.412;9.514;2023-10-19T01:13:25;71540.78;;;18.71
64600;BMP280;6553;48.412;9.514;2023-10-19T01:15:54;71545.03;;;18.75
64600;BMP280;6553;48.412;9.514;2023-10-19T01:18:21;71542.47;;;18.70
64600;BMP280;6553;48.412;9.514;2023-10-19T01:20:47;71533.78;;;18.67
64600;BMP280;6553;48.412;9.514;2023-10-19T01:23:16;71537.47;;;18.70
64600;BMP280;6553;48.412;9.514;2023-10-19T01:25:51;71544.09;;;18.72
64600;BMP280;6553;48.412;9.514;2023-10-19T01:31:20;71546.19;;;18.74
64600;BMP280;6553;48.412;9.514;2023-10-19T01:34:00;71543.97;;;18.74
64600;BMP280;6553;48.412;9.514;2023-10-19T01:36:34;71542.91;;;18.73
64600;BMP280;6553;48.412;9.514;2023-10-19T01:39:08;71545.78;;;18.70
64600;BMP280;6553;48.412;9.514;2023-10-19T01:41:38;71552.78;;;18.75
64600;BMP280;6553;48.412;9.514;2023-10-19T01:44:06;71540.25;;;18.70
64600;BMP280;6553;48.412;9.514;2023-10-19T01:46:34;71540.69;;;18.74
64600;BMP280;6553;48.412;9.514;2023-10-19T01:49:03;71544.50;;;18.75
64600;BMP280;6553;48.412;9.514;2023-10-19T01:51:32;71543.53;;;18.71
64600;BMP280;6553;48.412;9.514;2023-10-19T01:54:06;71542.47;;;18.70
64600;BMP280;6553;48.412;9.514;2023-10-19T01:56:33;71539.72;;;18.70
64600;BMP280;6553;48.412;9.514;2023-10-19T01:59:05;71538.03;;;18.71
64600;BMP280;6553;48.412;9.514;2023-10-19T02:01:31;71548.53;;;18.70
64600;BMP280;6553;48.412;9.514;2023-10-19T02:04:04;71542.38;;;18.73
64600;BMP280;6553;48.412;9.514;2023-10-19T02:06:33;71544.50;;;18.75
64600;BMP280;6553;48.412;9.514;2023-10-19T02:09:05;71546.19;;;18.74
64600;BMP280;6553;48.412;9.514;2023-10-19T02:11:50;71542.81;;;18.76
64600;BMP280;6553;48.412;9.514;2023-10-19T02:14:19;71538.56;;;18.72
64600;BMP280;6553;48.412;9.514;2023-10-19T02:16:50;71543.97;;;18.74
64600;BMP280;6553;48.412;9.514;2023-10-19T02:19:20;71539.09;;;18.72
64600;BMP280;6553;48.412;9.514;2023-10-19T02:21:53;71545.78;;;18.70
64600;BMP280;6553;48.412;9.514;2023-10-19T02:24:19;71543.00;;;18.70
64600;BMP280;6553;48.412;9.514;2023-10-19T02:26:49;71541.31;;;18.72
64600;BMP280;6553;48.412;9.514;2023-10-19T02:29:17;71543.53;;;18.71
64600;BMP280;6553;48.412;9.514;2023-10-19T02:31:43;71540.13;;;18.73
64600;BMP280;6553;48.412;9.514;2023-10-19T02:34:12;71539.59;;;18.73
64600;BMP280;6553;48.412;9.514;2023-10-19T02:36:42;71542.38;;;18.73
64600;BMP280;6553;48.412;9.514;2023-10-19T02:39:11;71543.97;;;18.74
64600;BMP280;6553;48.412;9.514;2023-10-19T02:41:47;71539.59;;;18.73
64600;BMP280;6553;48.412;9.514;2023-10-19T02:44:20;71541.19;;;18.74
64600;BMP280;6553;48.412;9.514;2023-10-19T02:46:53;71538.66;;;18.69
64600;BMP280;6553;48.412;9.514;2023-10-19T02:49:25;71544.50;;;18.75
64600;BMP280;6553;48.412;9.514;2023-10-19T02:51:53;71541.84;;;18.72
64600;BMP280;6553;48.412;9.514;2023-10-19T02:54:24;71541.19;;;18.74
64600;BMP280;6553;48.412;9.514;2023-10-19T02:56:54;71546.19;;;18.74
64600;BMP280;6553;48.412;9.514;2023-10-19T02:59:26;71549.06;;;18.71
64600;BMP280;6553;48.412;9.514;2023-10-19T03:01:57;71546.19;;;18.74
64600;BMP280;6553;48.412;9.514;2023-10-19T03:04:49;71536.94;;;18.70
64600;BMP280;6553;48.412;9.514;2023-10-19T03:07:15;71545.13;;;18.73
64600;BMP280;6553;48.412;9.514;2023-10-19T03:09:41;71543.00;;;18.70
64600;BMP280;6553;48.412;9.514;2023-10-19T03:12:21;71542.38;;;18.73
64600;BMP280;6553;48.412;9.514;2023-10-19T03:14:51;71543.00;;;18.70
64600;BMP280;6553;48.412;9.514;2023-10-19T03:17:17;71543.97;;;18.74
64600;BMP280;6553;48.412;9.514;2023-10-19T03:19:43;71544.09;;;18.72
64600;BMP280;6553;48.412;9.514;2023-10-19T03:22:09;71544.63;;;18.72
64600;BMP280;6553;48.412;9.514;2023-10-19T03:24:37;71530.16;;;18.61
64600;BMP280;6553;48.412;9.514;2023-10-19T03:27:11;71541.31;;;18.72
64600;BMP280;6553;48.412;9.514;2023-10-19T03:29:47;71542.91;;;18.73
64600;BMP280;6553;48.412;9.514;2023-10-19T03:32:33;71538.56;;;18.72
64600;BMP280;6553;48.412;9.514;2023-10-19T03:35:00;71541.41;;;18.69
64600;BMP280;6553;48.412;9.514;2023-10-19T03:37:28;71536.94;;;18.70
64600;BMP280;6553;48.412;9.514;2023-10-19T03:39:57;71545.13;;;18.73
64600;BMP280;6553;48.412;9.514;2023-10-19T03:42:23;71530.59;;;18.64
64600;BMP280;6553;48.412;9.514;2023-10-19T03:44:57;71540.69;;;18.74
64600;BMP280;6553;48.412;9.514;2023-10-19T03:47:23;71539.72;;;18.70
64600;BMP280;6553;48.412;9.514;2023-10-19T03:50:01;71544.09;;;18.72
64600;BMP280;6553;48.412;9.514;2023-10-19T03:52:35;71539.72;;;18.70
64600;BMP280;6553;48.412;9.514;2023-10-19T03:55:04;71545.25;;;18.70
64600;BMP280;6553;48.412;9.514;2023-10-19T03:57:37;71536.00;;;18.66
64600;BMP280;6553;48.412;9.514;2023-10-19T04:00:08;71539.28;;;18.67
64600;BMP280;6553;48.412;9.514;2023-10-19T04:02:41;71540.78;;;18.71
64600;BMP280;6553;48.412;9.514;2023-10-19T04:05:08;71539.59;;;18.73
64600;BMP280;6553;48.412;9.514;2023-10-19T04:07:41;71539.72;;;18.70
64600;BMP280;6553;48.412;9.514;2023-10-19T04:10:08;71548.44;;;18.73
64600;BMP280;6553;48.412;9.514;2023-10-19T04:12:43;71537.47;;;18.70
64600;BMP280;6553;48.412;9.514;2023-10-19T04:15:10;71542.47;;;18.70
64600;BMP280;6553;48.412;9.514;2023-10-19T04:17:39;71543.44;;;18.74
64600;BMP280;6553;48.412;9.514;2023-10-19T04:20:06;71543.00;;;18.70
64600;BMP280;6553;48.412;9.514;2023-10-19T04:22:49;71544.09;;;18.72
64600;BMP280;6553;48.412;9.514;2023-10-19T04:25:17;71543.53;;;18.71
64600;BMP280;6553;48.412;9.514;2023-10-19T04:27:47;71541.31;;;18.72
64600;BMP280;6553;48.412;9.514;2023-10-19T04:30:15;71544.63;;;18.72
64600;BMP280;6553;48.412;9.514;2023-10-19T04:32:46;71536.41;;;18.69
64600;BMP280;6553;48.412;9.514;2023-10-19T04:35:12;71538.03;;;18.71
64600;BMP280;6553;48.412;9.514;2023-10-19T04:37:54;71538.56;;;18.72
64600;BMP280;6553;48.412;9.514;2023-10-19T04:40:21;71540.13;;;18.73
64600;BMP280;6553;48.412;9.514;2023-10-19T04:42:52;71540.78;;;18.71
64600;BMP280;6553;48.412;9.514;2023-10-19T04:45:19;71539.72;;;18.70
64600;BMP280;6553;48.412;9.514;2023-10-19T04:47:45;71541.94;;;18.69
64600;BMP280;6553;48.412;9.514;2023-10-19T04:50:12;71539.72;;;18.70
64600;BMP280;6553;48.412;9.514;2023-10-19T04:52:38;71537.06;;;18.67
64600;BMP280;6553;48.412;9.514;2023-10-19T04:55:05;71538.66;;;18.69
64600;BMP280;6553;48.412;9.514;2023-10-19T04:57:31;71539.72;;;18.70
64600;BMP280;6553;48.412;9.514;2023-10-19T04:59:57;71531.66;;;18.65
64600;BMP280;6553;48.412;9.514;2023-10-19T05:02:23;71540.78;;;18.71
64600;BMP280;6553;48.412;9.514;2023-10-19T05:04:49;71534.84;;;18.68
64600;BMP280;6553;48.412;9.514;2023-10-19T05:07:15;71538.16;;;18.68
64600;BMP280;6553;48.412;9.514;2023-10-19T05:09:45;71539.28;;;18.67
64600;BMP280;6553;48.412;9.514;2023-10-19T05:12:13;71538.16;;;18.68
64600;BMP280;6553;48.412;9.514;2023-10-19T05:14:41;71535.47;;;18.66
64600;BMP280;6553;48.412;9.514;2023-10-19T05:17:08;71539.72;;;18.70
64600;BMP280;6553;48.412;9.514;2023-10-19T05:19:39;71540.91;;;18.68
64600;BMP280;6553;48.412;9.514;2023-10-19T05:22:07;71539.28;;;18.67
64600;BMP280;6553;48.412;9.514;2023-10-19T05:24:34;71539.84;;;18.67
64600;BMP280;6553;48.412;9.514;2023-10-19T05:27:00;71532.81;;;18.63
64600;BMP280;6553;48.412;9.514;2023-10-19T05:29:25;71540.91;;;18.68
64600;BMP280;6553;48.412;9.514;2023-10-19T05:31:53;71540.25;;;18.70
64600;BMP280;6553;48.412;9.514;2023-10-19T05:34:20;71539.28;;;18.67
64600;BMP280;6553;48.412;9.514;2023-10-19T05:36:47;71537.47;;;18.70
64600;BMP280;6553;48.412;9.514;2023-10-19T05:39:15;71532.81;;;18.63
64600;BMP280;6553;48.412;9.514;2023-10-19T05:41:42;71542.47;;;18.70
64600;BMP280;6553;48.412;9.514;2023-10-19T05:44:08;71535.88;;;18.69
64600;BMP280;6553;48.412;9.514;2023-10-19T05:46:34;71534.84;;;18.68
64600;BMP280;6553;48.412;9.514;2023-10-19T05:48:59;71540.38;;;18.68
64600;BMP280;6553;48.412;9.514;2023-10-19T05:51:27;71540.38;;;18.68
64600;BMP280;6553;48.412;9.514;2023-10-19T05:53:53;71533.22;;;18.66
64600;BMP280;6553;48.412;9.514;2023-10-19T05:56:33;71539.72;;;18.70
64600;BMP280;6553;48.412;9.514;2023-10-19T05:59:00;71539.84;;;18.67
64600;BMP280;6553;48.412;9.514;2023-10-19T06:01:26;71536.41;;;18.69
64600;BMP280;6553;48.412;9.514;2023-10-19T06:03:52;71540.91;;;18.68
64600;BMP280;6553;48.412;9.514;2023-10-19T06:06:19;71545.13;;;18.73
64600;BMP280;6553;48.412;9.514;2023-10-19T06:08:46;71535.88;;;18.69
64600;BMP280;6553;48.412;9.514;2023-10-19T06:11:11;71540.38;;;18.68
64600;BMP280;6553;48.412;9.514;2023-10-19T06:13:37;71540.78;;;18.71
64600;BMP280;6553;48.412;9.514;2023-10-19T06:16:03;71539.72;;;18.70
64600;BMP280;6553;48.412;9.514;2023-10-19T06:18:29;71544.09;;;18.72
64600;BMP280;6553;48.412;9.514;2023-10-19T06:20:55;71536.53;;;18.67
64600;BMP280;6553;48.412;9.514;2023-10-19T06:23:21;71539.59;;;18.73
64600;BMP280;6553;48.412;9.514;2023-10-19T06:25:47;71542.38;;;18.73
64600;BMP280;6553;48.412;9.514;2023-10-19T06:28:14;71543.53;;;18.71
64600;BMP280;6553;48.412;9.514;2023-10-19T06:30:40;71540.78;;;18.71
64600;BMP280;6553;48.412;9.514;2023-10-19T06:33:06;71545.13;;;18.73
64600;BMP280;6553;48.412;9.514;2023-10-19T06:35:33;71542.81;;;18.76
64600;BMP280;6553;48.412;9.514;2023-10-19T06:38:00;71548.44;;;18.73
64600;BMP280;6553;48.412;9.514;2023-10-19T06:40:27;71537.47;;;18.70
64600;BMP280;6553;48.412;9.514;2023-10-19T06:42:55;71538.56;;;18.72
64600;BMP280;6553;48.412;9.514;2023-10-19T06:45:21;71545.13;;;18.73
64600;BMP280;6553;48.412;9.514;2023-10-19T06:47:49;71534.50;;;18.62
64600;BMP280;6553;48.412;9.514;2023-10-19T06:50:22;71544.09;;;18.72
64600;BMP280;6553;48.412;9.514;2023-10-19T06:52:49;71547.78;;;18.75
64600;BMP280;6553;48.412;9.514;2023-10-19T06:55:18;71554.38;;;18.76
64600;BMP280;6553;48.412;9.514;2023-10-19T06:57:51;71548.31;;;18.76
64600;BMP280;6553;48.412;9.514;2023-10-19T07:00:21;71544.63;;;18.72
64600;BMP280;6553;48.412;9.514;2023-10-19T07:02:50;71542.91;;;18.73
64600;BMP280;6553;48.412;9.514;2023-10-19T07:05:19;71539.59;;;18.73
64600;BMP280;6553;48.412;9.514;2023-10-19T07:07:56;71541.72;;;18.75
64600;BMP280;6553;48.412;9.514;2023-10-19T07:10:23;71543.00;;;18.70
64600;BMP280;6553;48.412;9.514;2023-10-19T07:12:53;71549.38;;;18.77
64600;BMP280;6553;48.412;9.514;2023-10-19T07:15:20;71539.59;;;18.73
64600;BMP280;6553;48.412;9.514;2023-10-19T07:17:50;71547.78;;;18.75
64600;BMP280;6553;48.412;9.514;2023-10-19T07:20:18;71544.50;;;18.75
64600;BMP280;6553;48.412;9.514;2023-10-19T07:23:04;71544.50;;;18.75
64600;BMP280;6553;48.412;9.514;2023-10-19T07:25:50;71543.84;;;18.77
64600;BMP280;6553;48.412;9.514;2023-10-19T07:28:20;71543.97;;;18.74
64600;BMP280;6553;48.412;9.514;2023-10-19T07:30:47;71541.72;;;18.75
64600;BMP280;6553;48.412;9.514;2023-10-19T07:33:14;71549.50;;;18.74
64600;BMP280;6553;48.412;9.514;2023-10-19T07:35:44;71539.59;;;18.73
64600;BMP280;6553;48.412;9.514;2023-10-19T07:38:14;71545.47;;;18.78
64600;BMP280;6553;48.412;9.514;2023-10-19T07:40:40;71547.25;;;18.75
64600;BMP280;6553;48.412;9.514;2023-10-19T07:43:06;71543.84;;;18.77
64600;BMP280;6553;48.412;9.514;2023-10-19T07:45:33;71543.84;;;18.77
64600;BMP280;6553;48.412;9.514;2023-10-19T07:48:00;71546.72;;;18.74
64600;BMP280;6553;48.412;9.514;2023-10-19T07:50:33;71542.81;;;18.76
64600;BMP280;6553;48.412;9.514;2023-10-19T07:52:59;71548.75;;;18.79
64600;BMP280;6553;48.412;9.514;2023-10-19T07:55:25;71550.44;;;18.78
64600;BMP280;6553;48.412;9.514;2023-10-19T07:57:51;71551.50;;;18.79
64600;BMP280;6553;48.412;9.514;2023-10-19T08:00:20;71548.84;;;18.76
64600;BMP280;6553;48.412;9.514;2023-10-19T08:02:47;71546.50;;;18.79
64600;BMP280;6553;48.412;9.514;2023-10-19T08:05:17;71552.03;;;18.79
64600;BMP280;6553;48.412;9.514;2023-10-19T08:07:46;71549.78;;;18.80
64600;BMP280;6553;48.412;9.514;2023-10-19T08:10:18;71550.31;;;18.80
64600;BMP280;6553;48.412;9.514;2023-10-19T08:12:45;71548.09;;;18.81
64600;BMP280;6553;48.412;9.514;2023-10-19T08:15:14;71554.81;;;18.79
64600;BMP280;6553;48.412;9.514;2023-10-19T08:17:46;71548.09;;;18.81
64600;BMP280;6553;48.412;9.514;2023-10-19T08:20:14;71548.09;;;18.81
64600;BMP280;6553;48.412;9.514;2023-10-19T08:22:53;71548.22;;;18.78
64600;BMP280;6553;48.412;9.514;2023-10-19T08:25:19;71550.25;;;18.83
64600;BMP280;6553;48.412;9.514;2023-10-19T08:27:46;71549.72;;;18.82
64600;BMP280;6553;48.412;9.514;2023-10-19T08:30:20;71551.94;;;18.82
64600;BMP280;6553;48.412;9.514;2023-10-19T08:32:47;71559.56;;;18.84
64600;BMP280;6553;48.412;9.514;2023-10-19T08:35:16;71558.53;;;18.83
64600;BMP280;6553;48.412;9.514;2023-10-19T08:37:56;71558.41;;;18.85
64600;BMP280;6553;48.412;9.514;2023-10-19T08:40:25;71541.81;;;18.85
64600;BMP280;6553;48.412;9.514;2023-10-19T08:42:52;71553.00;;;18.83
64600;BMP280;6553;48.412;9.514;2023-10-19T08:45:19;71558.94;;;18.86
64600;BMP280;6553;48.412;9.514;2023-10-19T08:47:58;71556.19;;;18.86
64600;BMP280;6553;48.412;9.514;2023-10-19T08:50:29;71553.94;;;18.86
64600;BMP280;6553;48.412;9.514;2023-10-19T08:52:58;71561.72;;;18.86
64600;BMP280;6553;48.412;9.514;2023-10-19T08:55:25;71556.72;;;18.86
64600;BMP280;6553;48.412;9.514;2023-10-19T08:57:52;71558.28;;;18.88
64600;BMP280;6553;48.412;9.514;2023-10-19T09:00:19;71553.63;;;18.81
64600;BMP280;6553;48.412;9.514;2023-10-19T09:02:45;71561.06;;;18.88
64600;BMP280;6553;48.412;9.514;2023-10-19T09:05:11;71555.13;;;18.85
64600;BMP280;6553;48.412;9.514;2023-10-19T09:07:55;71557.78;;;18.87
64600;BMP280;6553;48.412;9.514;2023-10-19T09:10:27;71557.34;;;18.84
64600;BMP280;6553;48.412;9.514;2023-10-19T09:13:02;71558.81;;;18.88
64600;BMP280;6553;48.412;9.514;2023-10-19T09:15:29;71561.06;;;18.88
64600;BMP280;6553;48.412;9.514;2023-10-19T09:18:01;71557.78;;;18.87
64600;BMP280;6553;48.412;9.514;2023-10-19T09:20:37;71558.81;;;18.88
64600;BMP280;6553;48.412;9.514;2023-10-19T09:23:03;71563.19;;;18.90
64600;BMP280;6553;48.412;9.514;2023-10-19T09:25:29;71556.72;;;18.86
64600;BMP280;6553;48.412;9.514;2023-10-19T09:27:54;71555.53;;;18.88
64600;BMP280;6553;48.412;9.514;2023-10-19T09:30:23;71557.22;;;18.87
64600;BMP280;6553;48.412;9.514;2023-10-19T09:32:52;71562.13;;;18.89
64600;BMP280;6553;48.412;9.514;2023-10-19T09:35:20;71555.53;;;18.88
64600;BMP280;6553;48.412;9.514;2023-10-19T09:37:45;71555.13;;;18.85
64600;BMP280;6553;48.412;9.514;2023-10-19T09:40:13;71557.22;;;18.87
64600;BMP280;6553;48.412;9.514;2023-10-19T09:42:42;71559.34;;;18.89
64600;BMP280;6553;48.412;9.514;2023-10-19T09:45:15;71560.00;;;18.87
64600;BMP280;6553;48.412;9.514;2023-10-19T09:47:49;71551.81;;;18.84
64600;BMP280;6553;48.412;9.514;2023-10-19T09:50:15;71557.88;;;18.85
64600;BMP280;6553;48.412;9.514;2023-10-19T09:52:41;71561.06;;;18.88
64600;BMP280;6553;48.412;9.514;2023-10-19T09:55:26;71556.59;;;18.89
64600;BMP280;6553;48.412;9.514;2023-10-19T09:58:17;71562.13;;;18.89
64600;BMP280;6553;48.412;9.514;2023-10-19T10:00:47;71555.53;;;18.88
64600;BMP280;6553;48.412;9.514;2023-10-19T10:03:49;71563.19;;;18.90
64600;BMP280;6553;48.412;9.514;2023-10-19T10:06:30;71561.47;;;18.91
64600;BMP280;6553;48.412;9.514;2023-10-19T10:09:00;71567.00;;;18.91
64600;BMP280;6553;48.412;9.514;2023-10-19T10:11:27;71557.78;;;18.87
64600;BMP280;6553;48.412;9.514;2023-10-19T10:13:56;71568.59;;;18.92
64600;BMP280;6553;48.412;9.514;2023-10-19T10:16:27;71555.53;;;18.88
64600;BMP280;6553;48.412;9.514;2023-10-19T10:18:58;71565.84;;;18.92
64600;BMP280;6553;48.412;9.514;2023-10-19T10:21:28;71565.19;;;18.94
64600;BMP280;6553;48.412;9.514;2023-10-19T10:23:57;71565.19;;;18.94
64600;BMP280;6553;48.412;9.514;2023-10-19T10:26:30;71563.59;;;18.93
64600;BMP280;6553;48.412;9.514;2023-10-19T10:29:09;71566.25;;;18.95
64600;BMP280;6553;48.412;9.514;2023-10-19T10:31:41;71565.06;;;18.97
64600;BMP280;6553;48.412;9.514;2023-10-19T10:34:09;71566.88;;;18.93
64600;BMP280;6553;48.412;9.514;2023-10-19T10:37:00;71562.44;;;18.94
64600;BMP280;6553;48.412;9.514;2023-10-19T10:39:29;71570.09;;;18.96
64600;BMP280;6553;48.412;9.514;2023-10-19T10:42:04;71561.34;;;18.93
64600;BMP280;6553;48.412;9.514;2023-10-19T10:44:44;71560.31;;;18.92
64600;BMP280;6553;48.412;9.514;2023-10-19T10:47:15;71569.56;;;18.96
64600;BMP280;6553;48.412;9.514;2023-10-19T10:52:29;71562.97;;;18.95
64600;BMP280;6553;48.412;9.514;2023-10-19T10:54:56;71572.34;;;18.96
64600;BMP280;6553;48.412;9.514;2023-10-19T10:57:22;71562.44;;;18.94
64600;BMP280;6553;48.412;9.514;2023-10-19T11:00:11;71564.03;;;18.96
64600;BMP280;6553;48.412;9.514;2023-10-19T11:03:00;71562.97;;;18.95
64600;BMP280;6553;48.412;9.514;2023-10-19T11:05:27;71566.81;;;18.96
64600;BMP280;6553;48.412;9.514;2023-10-19T11:08:10;71570.59;;;18.97
64600;BMP280;6553;48.412;9.514;2023-10-19T11:10:40;71566.25;;;18.95
64600;BMP280;6553;48.412;9.514;2023-10-19T11:13:11;71563.50;;;18.95
64600;BMP280;6553;48.412;9.514;2023-10-19T11:15:39;71567.41;;;18.94
64600;BMP280;6553;48.412;9.514;2023-10-19T11:18:35;71567.41;;;18.94
64600;BMP280;6553;48.412;9.514;2023-10-19T11:21:06;71566.25;;;18.95
64600;BMP280;6553;48.412;9.514;2023-10-19T11:23:45;71568.91;;;18.98
64600;BMP280;6553;48.412;9.514;2023-10-19T11:26:15;71567.34;;;18.96
64600;BMP280;6553;48.412;9.514;2023-10-19T11:28:41;71561.88;;;18.94
64600;BMP280;6553;48.412;9.514;2023-10-19T11:31:21;71574.97;;;18.98
64600;BMP280;6553;48.412;9.514;2023-10-19T11:33:54;71572.22;;;18.98
64600;BMP280;6553;48.412;9.514;2023-10-19T11:36:24;71571.66;;;18.98
64600;BMP280;6553;48.412;9.514;2023-10-19T11:38:52;71569.44;;;18.98
64600;BMP280;6553;48.412;9.514;2023-10-19T11:41:18;71573.81;;;19.00
64600;BMP280;6553;48.412;9.514;2023-10-19T11:43:47;71564.56;;;18.96
64600;BMP280;6553;48.412;9.514;2023-10-19T11:46:13;71567.84;;;18.97
64600;BMP280;6553;48.412;9.514;2023-10-19T11:48:41;71574.34;;;19.00
64600;BMP280;6553;48.412;9.514;2023-10-19T11:51:08;71574.34;;;19.00
64600;BMP280;6553;48.412;9.514;2023-10-19T11:53:38;71572.63;;;19.01
64600;BMP280;6553;48.412;9.514;2023-10-19T11:56:09;71571.06;;;19.00
64600;BMP280;6553;48.412;9.514;2023-10-19T11:58:37;71567.22;;;18.99
64600;BMP280;6553;48.412;9.514;2023-10-19T12:01:06;71568.91;;;18.98
64600;BMP280;6553;48.412;9.514;2023-10-19T12:03:37;71574.88;;;19.01
64600;BMP280;6553;48.412;9.514;2023-10-19T12:06:06;71573.69;;;19.02
64600;BMP280;6553;48.412;9.514;2023-10-19T12:08:37;71579.63;;;19.05
64600;BMP280;6553;48.412;9.514;2023-10-19T12:11:04;71584.00;;;19.07
64600;BMP280;6553;48.412;9.514;2023-10-19T12:13:41;71575.72;;;19.07
64600;BMP280;6553;48.412;9.514;2023-10-19T12:16:11;71580.16;;;19.06
64600;BMP280;6553;48.412;9.514;2023-10-19T12:18:44;71578.03;;;19.04
64600;BMP280;6553;48.412;9.514;2023-10-19T12:21:13;71574.75;;;19.03
64600;BMP280;6553;48.412;9.514;2023-10-19T12:23:44;71572.63;;;19.01
64600;BMP280;6553;48.412;9.514;2023-10-19T12:26:11;71578.56;;;19.04
64600;BMP280;6553;48.412;9.514;2023-10-19T12:28:40;71571.56;;;19.00
64600;BMP280;6553;48.412;9.514;2023-10-19T12:31:07;71572.50;;;19.04
64600;BMP280;6553;48.412;9.514;2023-10-19T12:33:37;71575.28;;;19.04
64600;BMP280;6553;48.412;9.514;2023-10-19T12:36:07;71575.38;;;19.01
64600;BMP280;6553;48.412;9.514;2023-10-19T12:38:51;71572.50;;;19.04
64600;BMP280;6553;48.412;9.514;2023-10-19T12:41:21;71578.03;;;19.04
64600;BMP280;6553;48.412;9.514;2023-10-19T12:43:47;71569.34;;;19.01
64600;BMP280;6553;48.412;9.514;2023-10-19T12:46:15;71573.16;;;19.02
64600;BMP280;6553;48.412;9.514;2023-10-19T12:48:43;71569.84;;;19.01
64600;BMP280;6553;48.412;9.514;2023-10-19T12:51:08;71578.56;;;19.04
64600;BMP280;6553;48.412;9.514;2023-10-19T12:53:37;71572.09;;;19.01
64600;BMP280;6553;48.412;9.514;2023-10-19T12:56:05;71576.34;;;19.05
64600;BMP280;6553;48.412;9.514;2023-10-19T12:58:37;71568.78;;;19.00
64600;BMP280;6553;48.412;9.514;2023-10-19T13:01:03;71574.22;;;19.03
64600;BMP280;6553;48.412;9.514;2023-10-19T13:03:31;71575.28;;;19.04
64600;BMP280;6553;48.412;9.514;2023-10-19T13:05:58;71577.53;;;19.03
64600;BMP280;6553;48.412;9.514;2023-10-19T13:08:24;71578.03;;;19.04
64600;BMP280;6553;48.412;9.514;2023-10-19T13:10:53;71580.69;;;19.06
64600;BMP280;6553;48.412;9.514;2023-10-19T13:13:19;71574.75;;;19.03
64600;BMP280;6553;48.412;9.514;2023-10-19T13:15:49;71585.69;;;19.06
64600;BMP280;6553;48.412;9.514;2023-10-19T13:18:15;71576.34;;;19.05
64600;BMP280;6553;48.412;9.514;2023-10-19T13:20:48;71578.56;;;19.04
64600;BMP280;6553;48.412;9.514;2023-10-19T13:23:14;71575.28;;;19.04
64600;BMP280;6553;48.412;9.514;2023-10-19T13:25:48;71579.63;;;19.05
64600;BMP280;6553;48.412;9.514;2023-10-19T13:28:20;71584.00;;;19.07
64600;BMP280;6553;48.412;9.514;2023-10-19T13:30:52;71584.53;;;19.07
64600;BMP280;6553;48.412;9.514;2023-10-19T13:33:22;71579.22;;;19.02
64600;BMP280;6553;48.412;9.514;2023-10-19T13:35:50;71576.22;;;19.07
64600;BMP280;6553;48.412;9.514;2023-10-19T13:38:17;71576.22;;;19.07
64600;BMP280;6553;48.412;9.514;2023-10-19T13:40:46;71579.13;;;19.05
64600;BMP280;6553;48.412;9.514;2023-10-19T13:43:13;71580.06;;;19.08
64600;BMP280;6553;48.412;9.514;2023-10-19T13:45:44;71576.22;;;19.07
64600;BMP280;6553;48.412;9.514;2023-10-19T13:48:12;71579.00;;;19.07
64600;BMP280;6553;48.412;9.514;2023-10-19T13:50:44;71577.28;;;19.08
64600;BMP280;6553;48.412;9.514;2023-10-19T13:53:11;71565.72;;;18.95
64600;BMP280;6553;48.412;9.514;2023-10-19T13:55:37;71582.81;;;19.08
64600;BMP280;6553;48.412;9.514;2023-10-19T13:58:03;71580.59;;;19.09
64600;BMP280;6553;48.412;9.514;2023-10-19T14:00:29;71585.59;;;19.08
64600;BMP280;6553;48.412;9.514;2023-10-19T14:03:09;71579.13;;;19.05
64600;BMP280;6553;48.412;9.514;2023-10-19T14:05:37;71581.25;;;19.07
64600;BMP280;6553;48.412;9.514;2023-10-19T14:08:05;71578.91;;;19.10
64600;BMP280;6553;48.412;9.514;2023-10-19T14:10:32;71577.28;;;19.08
64600;BMP280;6553;48.412;9.514;2023-10-19T14:12:58;71580.16;;;19.06
64600;BMP280;6553;48.412;9.514;2023-10-19T14:15:24;71575.72;;;19.07
64600;BMP280;6553;48.412;9.514;2023-10-19T14:17:51;71585.59;;;19.08
64600;BMP280;6553;48.412;9.514;2023-10-19T14:20:17;71583.38;;;19.09
64600;BMP280;6553;48.412;9.514;2023-10-19T14:22:49;71581.66;;;19.10
64600;BMP280;6553;48.412;9.514;2023-10-19T14:25:16;71584.94;;;19.10
64600;BMP280;6553;48.412;9.514;2023-10-19T14:27:44;71586.66;;;19.09
64600;BMP280;6553;48.412;9.514;2023-10-19T14:30:12;71580.59;;;19.09
64600;BMP280;6553;48.412;9.514;2023-10-19T14:32:44;71583.38;;;19.09
64600;BMP280;6553;48.412;9.514;2023-10-19T14:35:11;71580.06;;;19.08
64600;BMP280;6553;48.412;9.514;2023-10-19T14:37:43;71582.81;;;19.08
64600;BMP280;6553;48.412;9.514;2023-10-19T14:40:15;71578.03;;;19.04
64600;BMP280;6553;48.412;9.514;2023-10-19T14:42:42;71583.38;;;19.09